Time;durP1;ratioP1;P1;durP2;ratioP2;P2;SDS_P1;SDS_P2;PMS_P1;PMS_P2;Temp;Humidity;BMP_temperature;BMP_pressure;BME280_temperature;BME280_humidity;BME280_pressure;Samples;Min_cycle;Max_cycle;Signal;HPM_P1;HPM_P2
2023/12/20 00:00:41;;;;;;;31.30;20.03;;;8.00;99.90;;;;;;5032411;28;20179;-72
2023/12/20 00:03:07;;;;;;;31.83;19.03;;;8.00;99.90;;;;;;5032552;28;20258;-73
2023/12/20 00:05:33;;;;;;;28.63;19.80;;;8.00;99.90;;;;;;5032543;28;20732;-73
2023/12/20 00:07:58;;;;;;;25.87;17.07;;;8.00;99.90;;;;;;5032130;28;20596;-73
2023/12/20 00:10:24;;;;;;;27.07;16.97;;;8.00;99.90;;;;;;5032674;28;20174;-73
2023/12/20 00:12:50;;;;;;;26.20;16.33;;;8.00;99.90;;;;;;5032365;28;20229;-74
2023/12/20 00:15:15;;;;;;;20.87;14.17;;;8.10;99.90;;;;;;5031698;28;20267;-73
2023/12/20 00:17:41;;;;;;;14.27;10.30;;;8.00;99.90;;;;;;5032336;28;20179;-73
2023/12/20 00:20:07;;;;;;;11.47;9.23;;;8.00;99.90;;;;;;5032658;28;20232;-73
2023/12/20 00:22:32;;;;;;;13.90;10.17;;;7.80;99.90;;;;;;5032491;28;20178;-72
2023/12/20 00:24:58;;;;;;;12.20;10.50;;;7.80;99.90;;;;;;5031801;28;20179;-73
2023/12/20 00:27:24;;;;;;;15.63;9.73;;;7.80;99.90;;;;;;5032118;28;20211;-73
2023/12/20 00:29:50;;;;;;;12.30;10.00;;;7.70;99.90;;;;;;5032183;28;20222;-73
2023/12/20 00:32:16;;;;;;;10.97;9.03;;;7.70;99.90;;;;;;5031605;28;20186;-74
2023/12/20 00:34:43;;;;;;;11.83;8.87;;;7.60;99.90;;;;;;5031047;28;20689;-73
2023/12/20 00:37:08;;;;;;;14.73;9.90;;;7.50;99.90;;;;;;5032648;28;20176;-72
2023/12/20 00:39:34;;;;;;;11.87;9.27;;;7.50;99.90;;;;;;5031936;28;20213;-73
2023/12/20 00:42:00;;;;;;;13.43;10.40;;;7.40;99.90;;;;;;5029586;28;20805;-73
2023/12/20 00:44:26;;;;;;;12.87;9.67;;;7.40;99.90;;;;;;5031327;28;20180;-72
2023/12/20 00:46:51;;;;;;;15.00;9.53;;;7.30;99.90;;;;;;5031698;28;20199;-73
2023/12/20 00:49:17;;;;;;;17.43;10.60;;;7.30;99.90;;;;;;5031381;28;20235;-72
2023/12/20 00:51:42;;;;;;;16.43;11.10;;;7.40;99.90;;;;;;5013939;28;20186;-73
2023/12/20 00:54:09;;;;;;;16.03;12.03;;;7.40;99.90;;;;;;5031414;28;20215;-72
2023/12/20 00:56:35;;;;;;;15.07;11.47;;;7.40;99.90;;;;;;5031824;28;20179;-73
2023/12/20 00:59:00;;;;;;;16.70;11.97;;;7.40;99.90;;;;;;5031837;28;20237;-72
2023/12/20 01:01:26;;;;;;;22.80;13.43;;;7.40;99.90;;;;;;5031499;28;20258;-73
2023/12/20 01:03:52;;;;;;;22.80;13.17;;;7.30;99.90;;;;;;5031289;28;20266;-73
2023/12/20 01:06:18;;;;;;;23.90;13.20;;;7.30;99.90;;;;;;5031313;28;20175;-73
2023/12/20 01:08:43;;;;;;;29.07;14.60;;;7.20;99.90;;;;;;5031444;28;20206;-72
2023/12/20 01:11:09;;;;;;;25.53;13.90;;;7.30;99.90;;;;;;5030266;28;20547;-72
2023/12/20 01:13:35;;;;;;;28.37;13.97;;;7.20;99.90;;;;;;5030978;28;20286;-72
2023/12/20 01:16:01;;;;;;;23.27;14.37;;;7.20;99.90;;;;;;5031399;28;20286;-72
2023/12/20 01:18:26;;;;;;;32.90;15.83;;;7.10;99.90;;;;;;5032012;28;20214;-71
2023/12/20 01:20:52;;;;;;;31.17;17.13;;;7.10;99.90;;;;;;5031313;28;20174;-72
2023/12/20 01:23:17;;;;;;;35.03;19.23;;;7.20;99.90;;;;;;5030810;28;20502;-72
2023/12/20 01:25:43;;;;;;;36.90;20.37;;;7.10;99.90;;;;;;5011669;28;20176;-73
2023/12/20 01:28:09;;;;;;;36.50;19.60;;;7.10;99.90;;;;;;5011472;28;20291;-72
2023/12/20 01:30:34;;;;;;;29.20;18.00;;;7.10;99.90;;;;;;5011961;28;20183;-71
2023/12/20 01:33:01;;;;;;;31.17;17.97;;;7.10;99.90;;;;;;5022149;28;20176;-71
2023/12/20 01:35:26;;;;;;;31.40;19.57;;;7.10;99.90;;;;;;5031024;28;20207;-72
2023/12/20 01:37:56;;;;;;;27.67;16.10;;;7.00;99.90;;;;;;5030970;28;20310;-72
2023/12/20 01:40:22;;;;;;;26.10;15.37;;;7.00;99.90;;;;;;5031116;28;20217;-72
2023/12/20 01:42:47;;;;;;;30.87;17.37;;;6.90;99.90;;;;;;5030883;28;20200;-72
2023/12/20 01:45:13;;;;;;;29.40;18.60;;;6.80;99.90;;;;;;5030521;28;20172;-72
2023/12/20 01:47:39;;;;;;;32.43;18.67;;;6.80;99.90;;;;;;5031011;28;20183;-72
2023/12/20 01:50:07;;;;;;;31.87;17.43;;;6.70;99.90;;;;;;5031033;28;20258;-72
2023/12/20 01:52:34;;;;;;;41.97;18.63;;;6.70;99.90;;;;;;5030713;28;20666;-72
2023/12/20 01:55:04;;;;;;;28.63;15.43;;;6.60;99.90;;;;;;5030753;28;20241;-71
2023/12/20 01:57:30;;;;;;;27.57;15.83;;;6.60;99.90;;;;;;5031085;28;20169;-72
2023/12/20 01:59:56;;;;;;;28.57;17.80;;;6.50;99.90;;;;;;5031422;28;20199;-72
2023/12/20 02:02:21;;;;;;;34.00;17.10;;;6.40;99.90;;;;;;5030853;28;20547;-72
2023/12/20 02:04:47;;;;;;;23.93;12.80;;;6.30;99.90;;;;;;5030571;28;20270;-71
2023/12/20 02:07:13;;;;;;;26.10;14.10;;;6.20;99.90;;;;;;5013165;28;20210;-72
2023/12/20 02:09:40;;;;;;;23.20;11.97;;;6.20;99.90;;;;;;5030582;28;20203;-73
2023/12/20 02:12:05;;;;;;;25.43;11.60;;;6.10;99.90;;;;;;5030699;28;20195;-72
2023/12/20 02:14:31;;;;;;;21.03;11.57;;;6.00;99.90;;;;;;5030558;28;20203;-72
2023/12/20 02:16:57;;;;;;;17.47;10.87;;;6.00;99.90;;;;;;5030724;28;20175;-72
2023/12/20 02:19:22;;;;;;;20.23;10.33;;;6.00;99.90;;;;;;5030550;28;20718;-72
2023/12/20 02:21:48;;;;;;;21.70;9.67;;;5.90;99.90;;;;;;5030490;28;20209;-71
2023/12/20 02:24:13;;;;;;;23.83;10.10;;;5.90;99.90;;;;;;5030482;28;20210;-72
2023/12/20 02:26:39;;;;;;;17.77;8.90;;;5.90;99.90;;;;;;5030741;28;20207;-72
2023/12/20 02:29:05;;;;;;;18.17;8.70;;;5.90;99.90;;;;;;5030394;28;20199;-72
2023/12/20 02:31:30;;;;;;;22.87;8.57;;;5.80;99.90;;;;;;5030709;28;20183;-72
2023/12/20 02:33:56;;;;;;;27.90;8.30;;;5.80;99.90;;;;;;5030222;28;20211;-72
2023/12/20 02:36:21;;;;;;;24.50;7.90;;;5.90;99.90;;;;;;5030611;28;20237;-71
2023/12/20 02:38:47;;;;;;;20.97;7.50;;;5.80;99.90;;;;;;5030426;28;20210;-71
2023/12/20 02:41:15;;;;;;;18.90;7.57;;;5.90;99.90;;;;;;5030937;28;20546;-71
2023/12/20 02:43:41;;;;;;;22.70;7.60;;;5.90;99.90;;;;;;5030236;28;20175;-72
2023/12/20 02:46:06;;;;;;;14.60;7.00;;;6.00;99.90;;;;;;5030222;28;20175;-72
2023/12/20 02:48:32;;;;;;;15.40;6.20;;;6.00;99.90;;;;;;5030157;28;20211;-72
2023/12/20 02:50:58;;;;;;;13.93;6.60;;;6.10;99.90;;;;;;5030558;28;20180;-72
2023/12/20 02:53:23;;;;;;;19.23;6.57;;;6.10;99.90;;;;;;5030210;28;20203;-70
2023/12/20 02:55:49;;;;;;;12.40;5.80;;;6.10;99.90;;;;;;5029925;28;20522;-71
2023/12/20 02:58:14;;;;;;;16.17;6.83;;;6.00;99.90;;;;;;5033625;28;20223;-71
2023/12/20 03:00:40;;;;;;;13.47;6.73;;;6.10;99.90;;;;;;5033950;28;20190;-71
2023/12/20 03:03:05;;;;;;;15.37;6.87;;;6.10;99.90;;;;;;5033397;28;20176;-72
2023/12/20 03:05:32;;;;;;;12.03;6.70;;;6.10;99.90;;;;;;5033610;28;20358;-71
2023/12/20 03:07:58;;;;;;;17.47;7.37;;;6.20;99.90;;;;;;5033648;28;20242;-72
2023/12/20 03:10:23;;;;;;;14.10;7.13;;;6.20;99.90;;;;;;5033820;28;20175;-72
2023/12/20 03:12:49;;;;;;;14.00;7.03;;;6.30;99.90;;;;;;5033711;28;20172;-72
2023/12/20 03:15:14;;;;;;;17.10;7.27;;;6.20;99.90;;;;;;5033310;28;20210;-72
2023/12/20 03:17:40;;;;;;;14.50;7.30;;;6.20;99.90;;;;;;5033218;28;20233;-71
2023/12/20 03:20:06;;;;;;;15.63;7.23;;;6.10;99.90;;;;;;5033750;28;20171;-71
2023/12/20 03:22:32;;;;;;;17.63;7.03;;;6.10;99.90;;;;;;5033923;28;20717;-71
2023/12/20 03:24:57;;;;;;;14.47;7.43;;;6.10;99.90;;;;;;5015180;28;20211;-71
2023/12/20 03:27:23;;;;;;;14.30;6.60;;;6.10;99.90;;;;;;5033396;28;20176;-71
2023/12/20 03:29:49;;;;;;;20.07;8.13;;;6.10;99.90;;;;;;5033306;28;20195;-71
2023/12/20 03:32:14;;;;;;;15.73;7.17;;;6.00;99.90;;;;;;5033154;28;20182;-71
2023/12/20 03:34:40;;;;;;;15.07;7.47;;;6.00;99.90;;;;;;5033118;28;20290;-71
2023/12/20 03:37:05;;;;;;;20.97;8.33;;;6.00;99.90;;;;;;5032848;28;20179;-71
2023/12/20 03:39:31;;;;;;;12.17;6.97;;;6.00;99.90;;;;;;5033068;28;20663;-71
2023/12/20 03:41:57;;;;;;;23.57;7.93;;;5.90;99.90;;;;;;5033084;28;20176;-71
2023/12/20 03:44:22;;;;;;;16.03;8.90;;;5.90;99.90;;;;;;5032718;28;20218;-70
2023/12/20 03:46:49;;;;;;;14.00;8.27;;;6.00;99.90;;;;;;5033240;28;20735;-71
2023/12/20 03:49:14;;;;;;;16.10;8.00;;;6.00;99.90;;;;;;5032616;28;20229;-70
2023/12/20 03:51:40;;;;;;;16.90;7.50;;;6.10;99.90;;;;;;5032820;28;20175;-71
2023/12/20 03:54:05;;;;;;;10.37;7.00;;;6.10;99.90;;;;;;5032598;28;20269;-72
2023/12/20 03:56:31;;;;;;;13.13;7.60;;;6.10;99.90;;;;;;5033146;28;20629;-71
2023/12/20 03:58:56;;;;;;;21.43;8.27;;;6.10;99.90;;;;;;5032503;28;20214;-71
2023/12/20 04:01:22;;;;;;;21.57;9.20;;;6.10;99.90;;;;;;5032661;28;20627;-71
2023/12/20 04:03:48;;;;;;;24.80;7.97;;;6.10;99.90;;;;;;5033166;28;20550;-71
2023/12/20 04:06:17;;;;;;;18.53;8.57;;;6.00;99.90;;;;;;5014877;28;20185;-71
2023/12/20 04:08:43;;;;;;;22.03;8.50;;;6.10;99.90;;;;;;5031518;28;20195;-72
2023/12/20 04:11:08;;;;;;;16.30;8.40;;;6.10;99.90;;;;;;5032535;28;20176;-71
2023/12/20 04:13:34;;;;;;;16.67;9.40;;;6.10;99.90;;;;;;5032048;28;20211;-70
2023/12/20 04:16:00;;;;;;;23.40;8.90;;;6.10;99.90;;;;;;5032090;28;20544;-70
2023/12/20 04:18:25;;;;;;;22.40;8.33;;;6.10;99.90;;;;;;5032507;28;20211;-71
2023/12/20 04:20:51;;;;;;;16.07;9.50;;;6.10;99.90;;;;;;5031809;28;20248;-71
2023/12/20 04:23:17;;;;;;;17.27;8.70;;;6.10;99.90;;;;;;5031472;28;20172;-71
2023/12/20 04:25:42;;;;;;;15.17;9.03;;;6.10;99.90;;;;;;5032430;28;20262;-71
2023/12/20 04:28:08;;;;;;;25.30;9.33;;;6.10;99.90;;;;;;5032242;28;20225;-71
2023/12/20 04:30:33;;;;;;;21.40;9.60;;;6.10;99.90;;;;;;5032419;28;20176;-71
2023/12/20 04:32:59;;;;;;;10.10;7.87;;;6.00;99.90;;;;;;5032147;28;20183;-71
2023/12/20 04:35:24;;;;;;;14.47;8.57;;;6.00;99.90;;;;;;5031640;28;20712;-70
2023/12/20 04:37:50;;;;;;;21.80;9.17;;;6.00;99.90;;;;;;5014333;28;20172;-70
2023/12/20 04:40:16;;;;;;;19.13;9.37;;;6.00;99.90;;;;;;5032076;28;20180;-71
2023/12/20 04:42:41;;;;;;;15.67;10.43;;;6.00;99.90;;;;;;5032019;28;20237;-70
2023/12/20 04:45:07;;;;;;;18.83;9.37;;;6.00;99.90;;;;;;5031666;28;20639;-70
2023/12/20 04:47:33;;;;;;;18.57;8.70;;;6.00;99.90;;;;;;5031814;28;20176;-70
2023/12/20 04:49:58;;;;;;;22.17;9.63;;;6.00;99.90;;;;;;5031888;28;20218;-72
2023/12/20 04:52:25;;;;;;;18.50;9.30;;;5.90;99.90;;;;;;5031676;28;20175;-70
2023/12/20 04:54:50;;;;;;;17.13;8.40;;;5.90;99.90;;;;;;5031050;28;20203;-70
2023/12/20 04:57:16;;;;;;;16.60;8.70;;;5.80;99.90;;;;;;5031543;28;20198;-70
2023/12/20 04:59:41;;;;;;;12.53;7.97;;;5.80;99.90;;;;;;5031752;28;20231;-70
2023/12/20 05:02:07;;;;;;;13.57;8.30;;;5.80;99.90;;;;;;5031625;28;20171;-70
2023/12/20 05:04:32;;;;;;;16.50;8.17;;;5.80;99.90;;;;;;5031712;28;20675;-70
2023/12/20 05:06:58;;;;;;;24.40;8.87;;;5.70;99.90;;;;;;5031354;28;20226;-70
2023/12/20 05:09:23;;;;;;;19.03;8.43;;;5.80;99.90;;;;;;5031248;28;20283;-71
2023/12/20 05:11:49;;;;;;;18.00;9.17;;;5.80;99.90;;;;;;5031488;28;20229;-70
2023/12/20 05:14:15;;;;;;;20.97;8.67;;;5.80;99.90;;;;;;5030984;28;20245;-69
2023/12/20 05:16:40;;;;;;;23.87;9.07;;;5.80;99.90;;;;;;5031382;28;20569;-70
2023/12/20 05:19:07;;;;;;;19.57;8.53;;;5.80;99.90;;;;;;5030636;28;20369;-70
2023/12/20 05:21:33;;;;;;;18.43;9.50;;;5.80;99.90;;;;;;5031510;28;20266;-70
2023/12/20 05:23:59;;;;;;;22.27;9.53;;;5.80;99.90;;;;;;5031274;28;20635;-71
2023/12/20 05:26:24;;;;;;;14.93;9.07;;;5.90;99.90;;;;;;5031616;28;20242;-71
2023/12/20 05:28:50;;;;;;;16.40;8.80;;;5.80;99.90;;;;;;5031303;28;20253;-70
2023/12/20 05:31:15;;;;;;;13.50;8.03;;;5.80;99.90;;;;;;5031136;28;20612;-70
2023/12/20 05:33:41;;;;;;;13.80;8.67;;;5.70;99.90;;;;;;5031263;28;20203;-70
2023/12/20 05:36:11;;;;;;;19.53;9.93;;;5.70;99.90;;;;;;5031147;28;20175;-71
2023/12/20 05:38:36;;;;;;;20.00;8.77;;;5.70;99.90;;;;;;5031027;28;20618;-70
2023/12/20 05:41:02;;;;;;;15.77;7.93;;;5.70;99.90;;;;;;5031039;28;20518;-70
2023/12/20 05:43:28;;;;;;;20.73;8.90;;;5.60;99.90;;;;;;5031012;28;20190;-70
2023/12/20 05:45:53;;;;;;;17.53;8.30;;;5.70;99.90;;;;;;5031261;28;20651;-71
2023/12/20 05:48:19;;;;;;;21.20;8.73;;;5.70;99.90;;;;;;5031146;28;20210;-70
2023/12/20 05:50:44;;;;;;;14.97;7.20;;;5.70;99.90;;;;;;5030862;28;20362;-70
2023/12/20 05:53:10;;;;;;;15.67;8.13;;;5.80;99.90;;;;;;5030880;28;20178;-69
2023/12/20 05:55:35;;;;;;;10.90;7.53;;;5.80;99.90;;;;;;5030841;28;20540;-70
2023/12/20 05:58:01;;;;;;;25.07;8.40;;;5.80;99.90;;;;;;5030984;28;20195;-70
2023/12/20 06:00:26;;;;;;;11.93;8.00;;;5.80;99.90;;;;;;5031029;28;20251;-71
2023/12/20 06:02:52;;;;;;;23.03;8.10;;;5.90;99.90;;;;;;5031010;28;20635;-71
2023/12/20 06:05:18;;;;;;;16.37;7.73;;;5.90;99.90;;;;;;5030695;28;20171;-70
2023/12/20 06:07:44;;;;;;;19.70;7.23;;;5.90;99.90;;;;;;5031081;28;20262;-70
2023/12/20 06:10:10;;;;;;;18.57;8.27;;;6.00;99.90;;;;;;5030666;28;20171;-70
2023/12/20 06:12:36;;;;;;;14.80;8.07;;;6.00;99.90;;;;;;5030658;28;20180;-70
2023/12/20 06:15:03;;;;;;;24.03;8.90;;;6.00;99.90;;;;;;5030478;28;20306;-70
2023/12/20 06:17:30;;;;;;;15.27;7.77;;;6.10;99.90;;;;;;5030808;28;20194;-70
2023/12/20 06:19:56;;;;;;;20.73;7.53;;;6.10;99.90;;;;;;5030662;28;20521;-70
2023/12/20 06:22:21;;;;;;;17.60;8.50;;;6.10;99.90;;;;;;5030667;28;20175;-70
2023/12/20 06:24:47;;;;;;;15.37;8.00;;;6.20;99.90;;;;;;5030580;28;20316;-70
2023/12/20 06:27:13;;;;;;;23.50;7.80;;;6.20;99.90;;;;;;5030363;28;20663;-70
2023/12/20 06:29:38;;;;;;;10.93;7.50;;;6.30;99.90;;;;;;5030743;28;20231;-70
2023/12/20 06:32:04;;;;;;;15.43;6.47;;;6.30;99.90;;;;;;5032352;28;20229;-70
2023/12/20 06:34:30;;;;;;;15.67;7.20;;;6.20;99.90;;;;;;5034045;28;20518;-70
2023/12/20 06:36:55;;;;;;;18.07;8.43;;;6.30;99.90;;;;;;5034752;28;20172;-70
2023/12/20 06:39:21;;;;;;;20.53;7.17;;;6.40;99.90;;;;;;5033840;28;20196;-70
2023/12/20 06:41:46;;;;;;;11.83;6.33;;;6.40;99.90;;;;;;5034367;28;20295;-71
2023/12/20 06:44:12;;;;;;;16.07;7.67;;;6.40;99.90;;;;;;5034227;28;20180;-70
2023/12/20 06:46:37;;;;;;;20.63;7.87;;;6.40;99.90;;;;;;5034589;28;20211;-70
2023/12/20 06:49:03;;;;;;;17.13;7.20;;;6.50;99.90;;;;;;5034551;28;20192;-70
2023/12/20 06:51:30;;;;;;;11.60;6.87;;;6.50;99.90;;;;;;5034219;28;20674;-70
2023/12/20 06:53:56;;;;;;;13.87;6.97;;;6.50;99.90;;;;;;5033932;28;20663;-70
2023/12/20 06:56:22;;;;;;;9.40;6.87;;;6.50;99.90;;;;;;5033721;28;20171;-71
2023/12/20 06:58:47;;;;;;;16.17;8.27;;;6.60;99.90;;;;;;5029006;28;20275;-70
2023/12/20 07:01:13;;;;;;;20.10;7.90;;;6.50;99.90;;;;;;5033752;28;20256;-70
2023/12/20 07:03:40;;;;;;;21.47;8.10;;;6.60;99.90;;;;;;5035476;28;20583;-72
2023/12/20 07:06:05;;;;;;;17.23;7.60;;;6.60;99.90;;;;;;5033713;28;20598;-71
2023/12/20 07:08:31;;;;;;;17.80;7.90;;;6.60;99.90;;;;;;5033532;28;20202;-72
2023/12/20 07:10:57;;;;;;;15.33;8.03;;;6.60;99.90;;;;;;5033848;28;20185;-70
2023/12/20 07:13:22;;;;;;;16.10;8.07;;;6.60;99.90;;;;;;5033275;28;20246;-71
2023/12/20 07:15:48;;;;;;;13.63;8.30;;;6.60;99.90;;;;;;5033632;28;20168;-72
2023/12/20 07:18:14;;;;;;;14.53;7.43;;;6.60;99.90;;;;;;5032934;28;20250;-71
2023/12/20 07:20:39;;;;;;;15.73;7.07;;;6.60;99.90;;;;;;5032448;28;20643;-71
2023/12/20 07:23:05;;;;;;;15.13;7.13;;;6.50;99.90;;;;;;5033349;28;20251;-70
2023/12/20 07:25:34;;;;;;;16.60;7.47;;;6.60;99.90;;;;;;5033278;28;20643;-70
2023/12/20 07:27:59;;;;;;;19.13;8.70;;;6.70;99.90;;;;;;5033473;28;20267;-70
2023/12/20 07:30:25;;;;;;;9.20;6.93;;;6.60;99.90;;;;;;5033671;28;20258;-70
2023/12/20 07:32:52;;;;;;;17.47;7.93;;;6.60;99.90;;;;;;5033070;28;20580;-71
2023/12/20 07:35:18;;;;;;;18.20;6.97;;;6.60;99.90;;;;;;5032865;28;20231;-70
2023/12/20 07:37:44;;;;;;;20.53;8.10;;;6.60;99.90;;;;;;5033258;28;20211;-70
2023/12/20 07:40:10;;;;;;;13.67;7.07;;;6.60;99.90;;;;;;5033198;28;20172;-72
2023/12/20 07:42:35;;;;;;;17.33;7.43;;;6.50;99.90;;;;;;5032934;28;20542;-70
2023/12/20 07:45:01;;;;;;;15.90;7.07;;;6.60;99.90;;;;;;5033035;28;20175;-71
2023/12/20 07:47:27;;;;;;;22.07;7.73;;;6.50;99.90;;;;;;5014933;28;20180;-71
2023/12/20 07:49:52;;;;;;;21.00;7.53;;;6.60;99.90;;;;;;5033027;28;20191;-70
2023/12/20 07:52:18;;;;;;;9.83;7.40;;;6.60;99.90;;;;;;5032889;28;20241;-71
2023/12/20 07:54:45;;;;;;;16.10;7.57;;;6.60;99.90;;;;;;5032624;28;20203;-71
2023/12/20 07:57:11;;;;;;;24.10;7.63;;;6.70;99.90;;;;;;5032776;28;20171;-70
2023/12/20 07:59:37;;;;;;;16.27;8.10;;;6.70;99.90;;;;;;5032858;28;20187;-71
2023/12/20 08:02:02;;;;;;;10.63;9.03;;;6.70;99.90;;;;;;5032927;28;20558;-71
2023/12/20 08:04:28;;;;;;;11.63;6.87;;;6.60;99.90;;;;;;5032591;28;20191;-70
2023/12/20 08:06:54;;;;;;;14.73;7.73;;;6.60;99.90;;;;;;5032617;28;20176;-70
2023/12/20 08:09:19;;;;;;;12.43;6.43;;;6.60;99.90;;;;;;5032882;28;20199;-69
2023/12/20 08:11:46;;;;;;;15.60;7.50;;;6.60;99.90;;;;;;5033270;28;20536;-69
2023/12/20 08:14:12;;;;;;;14.87;7.23;;;6.60;99.90;;;;;;5032305;28;20568;-69
2023/12/20 08:16:37;;;;;;;18.80;8.30;;;6.50;99.90;;;;;;5032519;28;20175;-70
2023/12/20 08:19:03;;;;;;;16.73;7.67;;;6.60;99.90;;;;;;5028969;28;20372;-69
2023/12/20 08:21:29;;;;;;;13.77;6.97;;;6.60;99.90;;;;;;5030736;28;20180;-69
2023/12/20 08:23:55;;;;;;;14.33;6.47;;;6.50;99.90;;;;;;5032399;28;20171;-70
2023/12/20 08:26:22;;;;;;;10.13;6.37;;;6.50;99.90;;;;;;5032122;28;20187;-69
2023/12/20 08:28:48;;;;;;;17.60;6.43;;;6.50;99.90;;;;;;5032251;28;20192;-70
2023/12/20 08:31:16;;;;;;;13.53;6.60;;;6.50;99.90;;;;;;5032050;28;20415;-69
2023/12/20 08:33:45;;;;;;;14.70;6.67;;;6.60;99.90;;;;;;5031830;28;20203;-69
2023/12/20 08:36:11;;;;;;;14.47;7.30;;;6.70;99.90;;;;;;5031578;28;20191;-69
2023/12/20 08:38:36;;;;;;;15.87;6.50;;;6.70;99.90;;;;;;5031988;28;20277;-69
2023/12/20 08:41:04;;;;;;;17.07;6.57;;;6.70;99.90;;;;;;5031669;28;20168;-70
2023/12/20 08:43:31;;;;;;;16.40;6.97;;;6.70;99.90;;;;;;5031432;28;20178;-69
2023/12/20 08:45:56;;;;;;;7.80;6.17;;;6.70;99.90;;;;;;5032052;28;20174;-70
2023/12/20 08:48:22;;;;;;;12.90;6.00;;;6.70;99.90;;;;;;5031563;28;20199;-69
2023/12/20 08:50:49;;;;;;;13.30;6.43;;;6.80;99.90;;;;;;5031229;28;20180;-69
2023/12/20 08:53:16;;;;;;;15.50;7.67;;;6.80;99.90;;;;;;5031975;28;20175;-69
2023/12/20 08:55:41;;;;;;;7.27;6.10;;;6.80;99.90;;;;;;5030841;28;20278;-69
2023/12/20 08:58:08;;;;;;;13.17;7.33;;;6.80;99.90;;;;;;5031813;28;20263;-69
2023/12/20 09:00:34;;;;;;;15.40;6.07;;;6.90;99.90;;;;;;5031772;28;20229;-68
2023/12/20 09:03:01;;;;;;;12.17;6.53;;;6.90;99.90;;;;;;5031766;28;20171;-69
2023/12/20 09:05:26;;;;;;;12.30;6.60;;;6.80;99.90;;;;;;5031234;28;20183;-68
2023/12/20 09:07:52;;;;;;;16.67;6.17;;;6.80;99.90;;;;;;5031535;28;20207;-69
2023/12/20 09:10:21;;;;;;;11.70;6.77;;;6.80;99.90;;;;;;5031367;28;20722;-69
2023/12/20 09:12:48;;;;;;;12.10;5.87;;;6.80;99.90;;;;;;5031250;28;20186;-69
2023/12/20 09:15:15;;;;;;;12.57;6.27;;;6.80;99.90;;;;;;5031169;28;20238;-69
2023/12/20 09:17:41;;;;;;;15.37;6.47;;;6.80;99.90;;;;;;5031309;28;20213;-69
2023/12/20 09:22:35;;;;;;;13.80;6.53;;;6.80;99.90;;;;;;5029987;28;20207;-71
2023/12/20 09:25:01;;;;;;;10.40;6.90;;;6.90;99.90;;;;;;5013867;28;20259;-71
2023/12/20 09:27:27;;;;;;;14.70;7.07;;;7.00;99.90;;;;;;5031298;28;20176;-71
2023/12/20 09:29:53;;;;;;;8.87;5.80;;;7.00;99.90;;;;;;5030947;28;20202;-71
2023/12/20 09:32:20;;;;;;;14.97;6.50;;;7.00;99.90;;;;;;5030944;28;20240;-72
2023/12/20 09:34:47;;;;;;;17.67;6.03;;;7.00;99.90;;;;;;5029992;28;20207;-71
2023/12/20 09:37:13;;;;;;;13.20;5.80;;;7.00;99.90;;;;;;5031184;28;20222;-72
2023/12/20 09:39:39;;;;;;;16.60;7.27;;;7.10;99.90;;;;;;5028853;28;20570;-71
2023/12/20 09:42:06;;;;;;;13.27;5.70;;;7.00;99.90;;;;;;5028981;28;20167;-71
2023/12/20 09:44:36;;;;;;;9.77;5.97;;;7.10;99.90;;;;;;5030919;28;20183;-71
2023/12/20 09:47:05;;;;;;;9.43;5.20;;;7.10;99.90;;;;;;5030774;28;20512;-71
2023/12/20 09:49:32;;;;;;;12.20;6.90;;;7.10;99.90;;;;;;5030850;28;20198;-69
2023/12/20 09:52:00;;;;;;;10.30;5.57;;;7.10;99.90;;;;;;5030699;28;20612;-70
2023/12/20 09:54:26;;;;;;;11.57;5.50;;;7.10;99.90;;;;;;5030338;28;20563;-70
2023/12/20 09:56:52;;;;;;;10.00;5.17;;;7.10;99.90;;;;;;5029687;28;20180;-70
2023/12/20 09:59:18;;;;;;;11.93;6.40;;;7.10;99.90;;;;;;5010077;28;20270;-72
2023/12/20 10:01:44;;;;;;;11.73;5.10;;;7.10;99.90;;;;;;5017358;28;20180;-71
2023/12/20 10:04:12;;;;;;;11.90;5.70;;;7.20;99.90;;;;;;5030367;28;20172;-72
2023/12/20 10:06:44;;;;;;;13.47;5.53;;;7.20;99.90;;;;;;5033243;28;20186;-71
2023/12/20 10:09:11;;;;;;;7.30;4.90;;;7.20;99.90;;;;;;5033802;28;20202;-71
2023/12/20 10:11:37;;;;;;;13.43;5.70;;;7.20;99.90;;;;;;5034027;28;20316;-71
2023/12/20 10:14:04;;;;;;;11.77;5.53;;;7.30;99.90;;;;;;5033665;28;20211;-70
2023/12/20 10:16:30;;;;;;;14.97;5.23;;;7.30;99.90;;;;;;5034126;28;20182;-71
2023/12/20 10:18:56;;;;;;;12.00;6.23;;;7.40;99.90;;;;;;5034629;28;20207;-71
2023/12/20 10:21:28;;;;;;;15.20;5.43;;;7.40;99.90;;;;;;5034087;28;20552;-70
2023/12/20 10:23:57;;;;;;;14.40;6.07;;;7.50;99.90;;;;;;5034386;28;20171;-70
2023/12/20 10:26:27;;;;;;;8.43;5.97;;;7.50;99.90;;;;;;5034242;28;20254;-70
2023/12/20 10:28:55;;;;;;;17.47;6.53;;;7.60;99.90;;;;;;5034261;28;20202;-71
2023/12/20 10:31:34;;;;;;;9.97;5.70;;;7.50;99.90;;;;;;5033839;28;20244;-71
2023/12/20 10:34:02;;;;;;;13.13;5.53;;;7.60;99.90;;;;;;5034031;28;20214;-70
2023/12/20 10:36:32;;;;;;;10.70;5.30;;;7.60;99.90;;;;;;5033992;28;20204;-70
2023/12/20 10:38:58;;;;;;;11.97;5.80;;;7.60;99.90;;;;;;5034128;28;20198;-71
2023/12/20 10:41:28;;;;;;;9.20;5.20;;;7.60;99.90;;;;;;5033747;28;20163;-70
2023/12/20 10:44:07;;;;;;;14.80;5.73;;;7.60;99.90;;;;;;5032553;28;20183;-71
2023/12/20 10:46:34;;;;;;;8.90;5.50;;;7.70;99.90;;;;;;5033621;28;20258;-70
2023/12/20 10:49:02;;;;;;;10.00;4.83;;;7.70;99.90;;;;;;5033907;28;20309;-70
2023/12/20 10:51:29;;;;;;;10.83;5.50;;;7.60;99.90;;;;;;5033644;28;20183;-70
2023/12/20 10:53:56;;;;;;;9.40;5.57;;;7.60;99.90;;;;;;5033266;28;20214;-70
2023/12/20 10:56:23;;;;;;;8.33;5.23;;;7.60;99.90;;;;;;5033763;28;20171;-71
2023/12/20 10:58:50;;;;;;;9.53;6.23;;;7.60;99.90;;;;;;5033684;28;20700;-70
2023/12/20 11:01:18;;;;;;;9.90;5.93;;;7.50;99.90;;;;;;5033576;28;20160;-70
2023/12/20 11:03:52;;;;;;;10.20;5.73;;;7.60;99.90;;;;;;5033495;28;20225;-70
2023/12/20 11:06:39;;;;;;;8.73;5.00;;;7.60;99.90;;;;;;5033485;28;20202;-70
2023/12/20 11:09:20;;;;;;;14.57;5.93;;;7.50;99.90;;;;;;5013834;28;20199;-73
2023/12/20 11:12:16;;;;;;;14.77;5.37;;;7.50;99.90;;;;;;5013455;28;20176;-71
2023/12/20 11:14:45;;;;;;;8.30;5.67;;;7.50;99.90;;;;;;5020438;28;20203;-70
2023/12/20 11:17:14;;;;;;;18.10;5.50;;;7.50;99.90;;;;;;5033060;28;20187;-71
2023/12/20 11:19:57;;;;;;;16.87;9.43;;;7.60;99.90;;;;;;5031008;28;20203;-70
2023/12/20 11:22:25;;;;;;;14.17;7.93;;;7.60;99.90;;;;;;5013379;28;20195;-71
2023/12/20 11:24:52;;;;;;;20.00;8.60;;;7.60;99.90;;;;;;5013591;28;20183;-70
2023/12/20 11:27:19;;;;;;;18.73;8.97;;;7.70;99.90;;;;;;5013326;28;20172;-70
2023/12/20 11:29:58;;;;;;;9.60;5.73;;;7.70;99.90;;;;;;5012826;28;20188;-70
2023/12/20 11:32:27;;;;;;;11.97;6.43;;;7.80;99.90;;;;;;5013083;28;20195;-70
2023/12/20 11:34:58;;;;;;;13.40;5.63;;;7.80;99.90;;;;;;5014876;28;20200;-71
2023/12/20 11:37:29;;;;;;;10.33;5.47;;;7.90;99.90;;;;;;5032711;28;20270;-70
2023/12/20 11:39:59;;;;;;;10.57;5.93;;;7.90;99.90;;;;;;5033066;28;20191;-71
2023/12/20 11:42:24;;;;;;;10.10;6.00;;;7.90;99.90;;;;;;5032818;28;20167;-70
2023/12/20 11:44:50;;;;;;;12.30;5.17;;;7.90;99.90;;;;;;5032885;28;20570;-70
2023/12/20 11:47:19;;;;;;;10.50;5.10;;;7.90;99.90;;;;;;5032852;28;20171;-70
2023/12/20 11:49:46;;;;;;;9.30;4.87;;;7.80;99.90;;;;;;5032771;28;20262;-70
2023/12/20 11:52:13;;;;;;;11.33;5.33;;;7.80;99.90;;;;;;5032581;28;20168;-73
2023/12/20 11:54:38;;;;;;;13.90;5.87;;;7.70;99.90;;;;;;5032406;28;20202;-69
2023/12/20 11:57:04;;;;;;;10.83;6.10;;;7.70;99.90;;;;;;5032558;28;20179;-69
2023/12/20 11:59:31;;;;;;;15.87;6.47;;;7.70;99.90;;;;;;5032378;28;20304;-71
2023/12/20 12:02:00;;;;;;;11.00;5.37;;;7.70;99.90;;;;;;5032653;28;20258;-70
2023/12/20 12:04:30;;;;;;;8.97;4.97;;;7.70;99.90;;;;;;5027516;28;20172;-71
2023/12/20 12:06:55;;;;;;;14.53;6.27;;;7.70;99.90;;;;;;5032844;28;20179;-71
2023/12/20 12:09:21;;;;;;;7.07;5.60;;;7.70;99.90;;;;;;5032344;28;20199;-70
2023/12/20 12:11:47;;;;;;;11.60;6.20;;;7.70;99.90;;;;;;5032506;28;20206;-71
2023/12/20 12:14:12;;;;;;;12.37;6.40;;;7.70;99.90;;;;;;5032143;28;20211;-74
2023/12/20 12:16:38;;;;;;;10.50;6.10;;;7.60;99.90;;;;;;5031943;28;20198;-72
2023/12/20 12:19:04;;;;;;;17.10;6.20;;;7.70;99.90;;;;;;5032238;28;20241;-71
2023/12/20 12:21:29;;;;;;;11.27;5.87;;;7.60;99.90;;;;;;5031560;28;20341;-72
2023/12/20 12:24:06;;;;;;;14.17;5.77;;;7.60;99.90;;;;;;5032055;28;20175;-70
2023/12/20 12:26:32;;;;;;;14.63;5.77;;;7.70;99.90;;;;;;5032293;28;20182;-70
2023/12/20 12:28:58;;;;;;;6.53;5.27;;;7.70;99.90;;;;;;5031369;28;20196;-70
2023/12/20 12:31:25;;;;;;;8.80;5.40;;;7.70;99.90;;;;;;5031837;28;20510;-71
2023/12/20 12:33:51;;;;;;;10.80;5.73;;;7.70;99.90;;;;;;5031597;28;20195;-71
2023/12/20 12:36:17;;;;;;;14.90;5.90;;;7.80;99.90;;;;;;5031515;28;20187;-72
2023/12/20 12:38:44;;;;;;;11.27;6.00;;;7.90;99.90;;;;;;5032115;28;20574;-71
2023/12/20 12:41:12;;;;;;;9.93;5.43;;;7.90;99.90;;;;;;5026791;28;20202;-72
2023/12/20 12:43:37;;;;;;;8.97;5.80;;;7.90;99.90;;;;;;5031378;28;20182;-71